sensor_id;sensor_type;location;lat;lon;timestamp;pressure;altitude;pressure_sealevel;temperature;humidity
78149;BME280;67396;42.664;23.382;2023-08-30T00:02:17;94048.31;;;21.44;68.13
78149;BME280;67396;42.664;23.382;2023-08-30T00:04:42;94052.78;;;21.65;66.19
78149;BME280;67396;42.664;23.382;2023-08-30T00:07:08;94045.59;;;21.73;65.95
78149;BME280;67396;42.664;23.382;2023-08-30T00:09:33;94055.81;;;21.76;66.40
78149;BME280;67396;42.664;23.382;2023-08-30T00:12:01;94057.44;;;21.83;65.57
78149;BME280;67396;42.664;23.382;2023-08-30T00:14:26;94045.22;;;21.95;65.19
78149;BME280;67396;42.664;23.382;2023-08-30T00:16:52;94044.06;;;21.87;66.00
78149;BME280;67396;42.664;23.382;2023-08-30T00:19:17;94049.03;;;21.53;67.53
78149;BME280;67396;42.664;23.382;2023-08-30T00:21:43;94047.84;;;21.21;68.20
78149;BME280;67396;42.664;23.382;2023-08-30T00:24:10;94033.22;;;21.02;69.19
78149;BME280;67396;42.664;23.382;2023-08-30T00:26:36;94039.56;;;21.03;69.29
78149;BME280;67396;42.664;23.382;2023-08-30T00:29:01;94044.78;;;21.19;66.65
78149;BME280;67396;42.664;23.382;2023-08-30T00:31:26;94047.78;;;21.30;65.32
78149;BME280;67396;42.664;23.382;2023-08-30T00:33:52;94044.53;;;21.32;67.56
78149;BME280;67396;42.664;23.382;2023-08-30T00:36:17;94035.16;;;21.20;67.29
78149;BME280;67396;42.664;23.382;2023-08-30T00:38:44;94042.97;;;21.07;67.06
78149;BME280;67396;42.664;23.382;2023-08-30T00:41:09;94039.50;;;21.12;65.46
78149;BME280;67396;42.664;23.382;2023-08-30T00:43:35;94048.31;;;21.20;63.62
78149;BME280;67396;42.664;23.382;2023-08-30T00:46:00;94052.03;;;21.26;63.03
78149;BME280;67396;42.664;23.382;2023-08-30T00:48:26;94043.34;;;21.24;62.89
78149;BME280;67396;42.664;23.382;2023-08-30T00:50:52;94045.06;;;21.21;62.96
78149;BME280;67396;42.664;23.382;2023-08-30T00:53:17;94039.78;;;20.99;62.96
78149;BME280;67396;42.664;23.382;2023-08-30T00:55:43;94036.78;;;21.03;63.36
78149;BME280;67396;42.664;23.382;2023-08-30T00:58:09;94049.75;;;20.91;63.41
78149;BME280;67396;42.664;23.382;2023-08-30T01:00:35;94049.63;;;21.10;62.28
78149;BME280;67396;42.664;23.382;2023-08-30T01:03:03;94061.28;;;21.32;61.30
78149;BME280;67396;42.664;23.382;2023-08-30T01:05:30;94077.50;;;21.43;59.97
78149;BME280;67396;42.664;23.382;2023-08-30T01:07:55;94089.75;;;21.45;60.54
78149;BME280;67396;42.664;23.382;2023-08-30T01:10:41;94097.16;;;21.24;61.91
78149;BME280;67396;42.664;23.382;2023-08-30T01:13:10;94092.53;;;21.12;62.34
78149;BME280;67396;42.664;23.382;2023-08-30T01:15:38;94085.28;;;21.06;62.35
78149;BME280;67396;42.664;23.382;2023-08-30T01:18:05;94098.56;;;21.20;61.89
78149;BME280;67396;42.664;23.382;2023-08-30T01:20:35;94100.34;;;21.08;61.88
78149;BME280;67396;42.664;23.382;2023-08-30T01:23:06;94099.91;;;21.00;64.20
78149;BME280;67396;42.664;23.382;2023-08-30T01:28:04;94096.56;;;21.11;64.68
78149;BME280;67396;42.664;23.382;2023-08-30T01:30:34;94095.91;;;21.25;64.30
78149;BME280;67396;42.664;23.382;2023-08-30T01:33:03;94085.63;;;21.31;63.86
78149;BME280;67396;42.664;23.382;2023-08-30T01:35:30;94075.78;;;21.12;66.13
78149;BME280;67396;42.664;23.382;2023-08-30T01:37:59;94068.34;;;20.85;66.98
78149;BME280;67396;42.664;23.382;2023-08-30T01:40:28;94068.44;;;21.00;66.54
78149;BME280;67396;42.664;23.382;2023-08-30T01:42:55;94082.03;;;21.07;64.95
78149;BME280;67396;42.664;23.382;2023-08-30T01:45:23;94093.50;;;21.09;63.48
78149;BME280;67396;42.664;23.382;2023-08-30T01:50:39;94089.72;;;20.88;65.64
78149;BME280;67396;42.664;23.382;2023-08-30T01:53:06;94083.13;;;20.77;66.74
78149;BME280;67396;42.664;23.382;2023-08-30T01:55:34;94087.69;;;20.65;67.46
78149;BME280;67396;42.664;23.382;2023-08-30T01:58:00;94094.03;;;20.65;66.81
78149;BME280;67396;42.664;23.382;2023-08-30T02:00:25;94091.16;;;20.84;63.54
78149;BME280;67396;42.664;23.382;2023-08-30T02:02:52;94094.91;;;21.04;62.01
78149;BME280;67396;42.664;23.382;2023-08-30T02:05:18;94096.69;;;21.26;61.60
78149;BME280;67396;42.664;23.382;2023-08-30T02:10:23;94082.88;;;21.46;61.32
78149;BME280;67396;42.664;23.382;2023-08-30T02:12:52;94074.03;;;21.48;61.56
78149;BME280;67396;42.664;23.382;2023-08-30T02:15:20;94081.66;;;21.23;63.11
78149;BME280;67396;42.664;23.382;2023-08-30T02:17:46;94080.50;;;21.06;65.56
78149;BME280;67396;42.664;23.382;2023-08-30T02:20:13;94074.97;;;20.97;65.72
78149;BME280;67396;42.664;23.382;2023-08-30T02:22:38;94067.25;;;20.92;66.41
78149;BME280;67396;42.664;23.382;2023-08-30T02:25:04;94067.09;;;20.86;67.21
78149;BME280;67396;42.664;23.382;2023-08-30T02:27:31;94066.16;;;20.65;67.30
78149;BME280;67396;42.664;23.382;2023-08-30T02:29:57;94060.59;;;20.56;68.26
78149;BME280;67396;42.664;23.382;2023-08-30T02:32:22;94061.72;;;20.83;65.71
78149;BME280;67396;42.664;23.382;2023-08-30T02:34:51;94068.25;;;21.03;64.62
78149;BME280;67396;42.664;23.382;2023-08-30T02:37:18;94060.59;;;21.13;63.50
78149;BME280;67396;42.664;23.382;2023-08-30T02:39:43;94071.88;;;21.28;64.22
78149;BME280;67396;42.664;23.382;2023-08-30T02:42:09;94065.16;;;21.34;63.37
78149;BME280;67396;42.664;23.382;2023-08-30T02:44:34;94078.06;;;21.47;61.86
78149;BME280;67396;42.664;23.382;2023-08-30T02:47:00;94077.09;;;21.35;64.50
78149;BME280;67396;42.664;23.382;2023-08-30T02:49:25;94064.53;;;21.30;64.90
78149;BME280;67396;42.664;23.382;2023-08-30T02:51:51;94057.25;;;21.33;63.99
78149;BME280;67396;42.664;23.382;2023-08-30T02:54:16;94064.47;;;21.39;63.91
78149;BME280;67396;42.664;23.382;2023-08-30T02:56:42;94066.78;;;21.41;63.80
78149;BME280;67396;42.664;23.382;2023-08-30T02:59:11;94063.28;;;21.31;64.19
78149;BME280;67396;42.664;23.382;2023-08-30T03:01:37;94066.19;;;21.13;64.63
78149;BME280;67396;42.664;23.382;2023-08-30T03:04:06;94066.19;;;21.13;65.03
78149;BME280;67396;42.664;23.382;2023-08-30T03:06:33;94067.78;;;21.05;66.25
78149;BME280;67396;42.664;23.382;2023-08-30T03:08:58;94062.13;;;20.90;65.89
78149;BME280;67396;42.664;23.382;2023-08-30T03:11:23;94066.94;;;20.90;67.05
78149;BME280;67396;42.664;23.382;2023-08-30T03:13:49;94052.56;;;20.82;68.13
78149;BME280;67396;42.664;23.382;2023-08-30T03:16:16;94057.38;;;20.49;69.49
78149;BME280;67396;42.664;23.382;2023-08-30T03:18:43;94064.00;;;20.51;68.92
78149;BME280;67396;42.664;23.382;2023-08-30T03:21:09;94063.25;;;20.51;68.95
78149;BME280;67396;42.664;23.382;2023-08-30T03:23:35;94069.25;;;20.58;68.23
78149;BME280;67396;42.664;23.382;2023-08-30T03:26:08;94075.25;;;20.75;66.78
78149;BME280;67396;42.664;23.382;2023-08-30T03:28:34;94074.16;;;20.73;68.33
78149;BME280;67396;42.664;23.382;2023-08-30T03:30:59;94058.13;;;20.49;68.82
78149;BME280;67396;42.664;23.382;2023-08-30T03:33:25;94060.78;;;20.44;69.56
78149;BME280;67396;42.664;23.382;2023-08-30T03:35:50;94055.84;;;20.48;69.35
78149;BME280;67396;42.664;23.382;2023-08-30T03:38:15;94058.75;;;20.53;69.21
78149;BME280;67396;42.664;23.382;2023-08-30T03:40:41;94045.19;;;20.37;70.04
78149;BME280;67396;42.664;23.382;2023-08-30T03:43:07;94044.53;;;20.33;69.95
78149;BME280;67396;42.664;23.382;2023-08-30T03:45:36;94050.28;;;20.29;70.49
78149;BME280;67396;42.664;23.382;2023-08-30T03:48:02;94049.44;;;20.05;70.15
78149;BME280;67396;42.664;23.382;2023-08-30T03:50:28;94050.75;;;20.28;67.69
78149;BME280;67396;42.664;23.382;2023-08-30T03:52:53;94045.19;;;20.37;67.02
78149;BME280;67396;42.664;23.382;2023-08-30T03:55:19;94058.00;;;20.44;67.01
78149;BME280;67396;42.664;23.382;2023-08-30T03:57:44;94058.03;;;20.35;66.64
78149;BME280;67396;42.664;23.382;2023-08-30T04:00:10;94065.28;;;20.32;66.59
78149;BME280;67396;42.664;23.382;2023-08-30T04:02:36;94065.63;;;20.25;66.37
78149;BME280;67396;42.664;23.382;2023-08-30T04:05:01;94070.28;;;20.28;66.65
78149;BME280;67396;42.664;23.382;2023-08-30T04:07:27;94090.13;;;20.12;68.60
78149;BME280;67396;42.664;23.382;2023-08-30T04:09:53;94083.19;;;19.89;70.00
78149;BME280;67396;42.664;23.382;2023-08-30T04:12:18;94081.47;;;20.10;67.82
78149;BME280;67396;42.664;23.382;2023-08-30T04:14:44;94077.09;;;20.18;65.71
78149;BME280;67396;42.664;23.382;2023-08-30T04:17:09;94071.53;;;20.18;65.09
78149;BME280;67396;42.664;23.382;2023-08-30T04:19:34;94083.63;;;19.97;65.04
78149;BME280;67396;42.664;23.382;2023-08-30T04:22:00;94097.63;;;19.60;66.25
78149;BME280;67396;42.664;23.382;2023-08-30T04:24:25;94102.22;;;19.72;66.29
78149;BME280;67396;42.664;23.382;2023-08-30T04:26:50;94100.69;;;19.89;65.93
78149;BME280;67396;42.664;23.382;2023-08-30T04:29:16;94103.44;;;19.99;65.93
78149;BME280;67396;42.664;23.382;2023-08-30T04:31:43;94109.03;;;19.99;66.19
78149;BME280;67396;42.664;23.382;2023-08-30T04:34:09;94117.03;;;20.15;67.00
78149;BME280;67396;42.664;23.382;2023-08-30T04:36:34;94125.09;;;20.31;67.64
78149;BME280;67396;42.664;23.382;2023-08-30T04:39:00;94125.72;;;20.35;67.36
78149;BME280;67396;42.664;23.382;2023-08-30T04:41:26;94127.66;;;20.62;67.33
78149;BME280;67396;42.664;23.382;2023-08-30T04:43:51;94133.84;;;20.99;65.97
78149;BME280;67396;42.664;23.382;2023-08-30T04:46:16;94142.06;;;21.35;64.80
78149;BME280;67396;42.664;23.382;2023-08-30T04:48:42;94156.03;;;21.35;64.60
78149;BME280;67396;42.664;23.382;2023-08-30T04:51:07;94150.63;;;21.80;63.77
78149;BME280;67396;42.664;23.382;2023-08-30T04:53:33;94144.00;;;21.11;64.42
78149;BME280;67396;42.664;23.382;2023-08-30T04:55:59;94142.38;;;20.95;64.77
78149;BME280;67396;42.664;23.382;2023-08-30T04:58:24;94141.94;;;20.97;64.46
78149;BME280;67396;42.664;23.382;2023-08-30T05:00:49;94144.97;;;21.17;64.55
78149;BME280;67396;42.664;23.382;2023-08-30T05:03:15;94144.97;;;21.17;64.43
78149;BME280;67396;42.664;23.382;2023-08-30T05:05:45;94147.03;;;21.31;63.83
78149;BME280;67396;42.664;23.382;2023-08-30T05:08:10;94134.03;;;20.95;65.05
78149;BME280;67396;42.664;23.382;2023-08-30T05:10:36;94140.94;;;21.09;63.39
78149;BME280;67396;42.664;23.382;2023-08-30T05:13:02;94152.69;;;21.22;62.80
78149;BME280;67396;42.664;23.382;2023-08-30T05:15:29;94147.34;;;21.33;62.55
78149;BME280;67396;42.664;23.382;2023-08-30T05:17:54;94155.06;;;21.38;62.12
78149;BME280;67396;42.664;23.382;2023-08-30T05:20:19;94144.69;;;21.39;62.86
78149;BME280;67396;42.664;23.382;2023-08-30T05:22:45;94146.69;;;21.38;62.26
78149;BME280;67396;42.664;23.382;2023-08-30T05:25:10;94139.81;;;21.49;61.17
78149;BME280;67396;42.664;23.382;2023-08-30T05:27:35;94141.66;;;21.52;60.77
78149;BME280;67396;42.664;23.382;2023-08-30T05:30:01;94154.38;;;21.53;60.48
78149;BME280;67396;42.664;23.382;2023-08-30T05:32:28;94153.59;;;21.52;61.22
78149;BME280;67396;42.664;23.382;2023-08-30T05:34:53;94154.91;;;21.90;60.13
78149;BME280;67396;42.664;23.382;2023-08-30T05:37:19;94153.22;;;22.07;59.79
78149;BME280;67396;42.664;23.382;2023-08-30T05:39:44;94146.72;;;22.25;59.29
78149;BME280;67396;42.664;23.382;2023-08-30T05:42:10;94149.09;;;22.17;59.68
78149;BME280;67396;42.664;23.382;2023-08-30T05:44:35;94152.09;;;22.28;59.59
78149;BME280;67396;42.664;23.382;2023-08-30T05:47:00;94151.34;;;22.57;59.88
78149;BME280;67396;42.664;23.382;2023-08-30T05:49:26;94142.66;;;22.55;58.70
78149;BME280;67396;42.664;23.382;2023-08-30T05:51:51;94148.84;;;22.74;58.41
78149;BME280;67396;42.664;23.382;2023-08-30T05:54:17;94144.38;;;22.97;58.17
78149;BME280;67396;42.664;23.382;2023-08-30T05:56:42;94133.59;;;23.39;56.42
78149;BME280;67396;42.664;23.382;2023-08-30T05:59:07;94139.88;;;22.84;60.30
78149;BME280;67396;42.664;23.382;2023-08-30T06:01:33;94145.38;;;22.49;60.17
78149;BME280;67396;42.664;23.382;2023-08-30T06:03:58;94144.38;;;22.38;59.59
78149;BME280;67396;42.664;23.382;2023-08-30T06:06:24;94144.78;;;22.89;58.31
78149;BME280;67396;42.664;23.382;2023-08-30T06:08:49;94141.34;;;23.15;56.64
78149;BME280;67396;42.664;23.382;2023-08-30T06:11:15;94140.09;;;23.16;56.00
78149;BME280;67396;42.664;23.382;2023-08-30T06:13:40;94140.84;;;23.31;56.19
78149;BME280;67396;42.664;23.382;2023-08-30T06:16:06;94142.06;;;23.10;56.67
78149;BME280;67396;42.664;23.382;2023-08-30T06:18:31;94142.53;;;23.43;56.77
78149;BME280;67396;42.664;23.382;2023-08-30T06:20:57;94147.56;;;23.94;55.04
78149;BME280;67396;42.664;23.382;2023-08-30T06:23:23;94142.50;;;23.58;54.67
78149;BME280;67396;42.664;23.382;2023-08-30T06:25:56;94156.69;;;23.89;54.33
78149;BME280;67396;42.664;23.382;2023-08-30T06:28:22;94143.41;;;24.10;53.94
78149;BME280;67396;42.664;23.382;2023-08-30T06:30:47;94145.03;;;23.96;54.44
78149;BME280;67396;42.664;23.382;2023-08-30T06:33:12;94150.50;;;23.85;54.67
78149;BME280;67396;42.664;23.382;2023-08-30T06:35:38;94154.38;;;23.88;54.01
78149;BME280;67396;42.664;23.382;2023-08-30T06:38:06;94160.56;;;23.92;54.40
78149;BME280;67396;42.664;23.382;2023-08-30T06:40:32;94161.22;;;24.07;54.33
78149;BME280;67396;42.664;23.382;2023-08-30T06:42:58;94147.88;;;24.43;53.08
78149;BME280;67396;42.664;23.382;2023-08-30T06:45:24;94149.19;;;24.99;52.32
78149;BME280;67396;42.664;23.382;2023-08-30T06:47:49;94161.34;;;24.90;51.87
78149;BME280;67396;42.664;23.382;2023-08-30T06:50:15;94163.38;;;24.64;52.14
78149;BME280;67396;42.664;23.382;2023-08-30T06:52:41;94159.44;;;24.76;52.36
78149;BME280;67396;42.664;23.382;2023-08-30T06:55:06;94159.03;;;24.89;52.66
78149;BME280;67396;42.664;23.382;2023-08-30T06:57:32;94147.84;;;25.26;51.47
78149;BME280;67396;42.664;23.382;2023-08-30T06:59:58;94146.81;;;25.60;50.08
78149;BME280;67396;42.664;23.382;2023-08-30T07:02:25;94140.19;;;25.63;48.84
78149;BME280;67396;42.664;23.382;2023-08-30T07:04:51;94149.56;;;25.97;48.03
78149;BME280;67396;42.664;23.382;2023-08-30T07:07:16;94144.06;;;26.25;46.81
78149;BME280;67396;42.664;23.382;2023-08-30T07:09:42;94151.25;;;26.26;46.46
78149;BME280;67396;42.664;23.382;2023-08-30T07:12:07;94143.50;;;26.10;46.52
78149;BME280;67396;42.664;23.382;2023-08-30T07:14:32;94148.22;;;26.35;46.27
78149;BME280;67396;42.664;23.382;2023-08-30T07:16:58;94146.97;;;26.58;46.71
78149;BME280;67396;42.664;23.382;2023-08-30T07:19:24;94135.22;;;26.77;46.01
78149;BME280;67396;42.664;23.382;2023-08-30T07:21:50;94139.88;;;26.91;46.32
78149;BME280;67396;42.664;23.382;2023-08-30T07:24:15;94142.63;;;26.57;46.04
78149;BME280;67396;42.664;23.382;2023-08-30T07:26:41;94159.84;;;26.93;44.92
78149;BME280;67396;42.664;23.382;2023-08-30T07:29:06;94148.59;;;27.21;44.30
78149;BME280;67396;42.664;23.382;2023-08-30T07:31:32;94145.25;;;27.22;43.54
78149;BME280;67396;42.664;23.382;2023-08-30T07:33:58;94145.50;;;27.41;43.55
78149;BME280;67396;42.664;23.382;2023-08-30T07:36:25;94143.22;;;27.06;44.10
78149;BME280;67396;42.664;23.382;2023-08-30T07:38:51;94150.63;;;27.09;44.11
78149;BME280;67396;42.664;23.382;2023-08-30T07:41:16;94145.22;;;27.45;43.70
78149;BME280;67396;42.664;23.382;2023-08-30T07:43:41;94143.94;;;27.68;43.00
78149;BME280;67396;42.664;23.382;2023-08-30T07:46:07;94140.28;;;27.95;41.18
78149;BME280;67396;42.664;23.382;2023-08-30T07:48:32;94141.94;;;28.32;41.18
78149;BME280;67396;42.664;23.382;2023-08-30T07:50:58;94134.38;;;27.93;40.42
78149;BME280;67396;42.664;23.382;2023-08-30T07:53:24;94136.44;;;27.87;39.88
78149;BME280;67396;42.664;23.382;2023-08-30T07:55:49;94142.09;;;27.82;40.84
78149;BME280;67396;42.664;23.382;2023-08-30T07:58:16;94148.22;;;27.91;40.84
78149;BME280;67396;42.664;23.382;2023-08-30T08:00:41;94140.03;;;27.82;40.99
78149;BME280;67396;42.664;23.382;2023-08-30T08:03:07;94149.19;;;28.22;40.31
78149;BME280;67396;42.664;23.382;2023-08-30T08:05:32;94140.84;;;28.46;40.40
78149;BME280;67396;42.664;23.382;2023-08-30T08:08:00;94136.25;;;28.37;40.05
78149;BME280;67396;42.664;23.382;2023-08-30T08:10:26;94145.72;;;28.45;39.45
78149;BME280;67396;42.664;23.382;2023-08-30T08:12:52;94145.91;;;28.53;38.79
78149;BME280;67396;42.664;23.382;2023-08-30T08:15:17;94141.75;;;28.65;39.16
78149;BME280;67396;42.664;23.382;2023-08-30T08:17:43;94139.63;;;28.77;39.42
78149;BME280;67396;42.664;23.382;2023-08-30T08:20:08;94143.06;;;28.59;37.84
78149;BME280;67396;42.664;23.382;2023-08-30T08:22:34;94150.25;;;28.02;38.55
78149;BME280;67396;42.664;23.382;2023-08-30T08:24:59;94147.91;;;28.17;37.50
78149;BME280;67396;42.664;23.382;2023-08-30T08:27:25;94150.16;;;28.30;38.38
78149;BME280;67396;42.664;23.382;2023-08-30T08:29:50;94149.00;;;28.55;37.30
78149;BME280;67396;42.664;23.382;2023-08-30T08:32:16;94153.66;;;28.47;37.03
78149;BME280;67396;42.664;23.382;2023-08-30T08:34:41;94144.94;;;28.45;37.63
78149;BME280;67396;42.664;23.382;2023-08-30T08:37:07;94148.56;;;28.40;37.68
78149;BME280;67396;42.664;23.382;2023-08-30T08:39:32;94140.78;;;28.57;37.36
78149;BME280;67396;42.664;23.382;2023-08-30T08:41:59;94142.22;;;28.28;35.62
78149;BME280;67396;42.664;23.382;2023-08-30T08:44:26;94146.25;;;27.64;36.27
78149;BME280;67396;42.664;23.382;2023-08-30T08:46:56;94153.44;;;27.09;36.93
78149;BME280;67396;42.664;23.382;2023-08-30T08:49:22;94144.22;;;27.37;37.28
78149;BME280;67396;42.664;23.382;2023-08-30T08:51:48;94155.66;;;26.49;38.02
78149;BME280;67396;42.664;23.382;2023-08-30T08:54:14;94145.28;;;27.00;37.41
78149;BME280;67396;42.664;23.382;2023-08-30T08:56:40;94147.75;;;26.53;37.71
78149;BME280;67396;42.664;23.382;2023-08-30T08:59:06;94142.38;;;26.67;37.22
78149;BME280;67396;42.664;23.382;2023-08-30T09:01:33;94151.38;;;26.87;37.30
78149;BME280;67396;42.664;23.382;2023-08-30T09:04:03;94149.63;;;27.07;37.17
78149;BME280;67396;42.664;23.382;2023-08-30T09:06:29;94138.34;;;26.95;36.93
78149;BME280;67396;42.664;23.382;2023-08-30T09:08:54;94133.69;;;26.87;36.91
78149;BME280;67396;42.664;23.382;2023-08-30T09:11:20;94149.56;;;25.92;37.78
78149;BME280;67396;42.664;23.382;2023-08-30T09:13:45;94141.34;;;25.82;39.09
78149;BME280;67396;42.664;23.382;2023-08-30T09:16:15;94129.50;;;25.67;39.58
78149;BME280;67396;42.664;23.382;2023-08-30T09:18:43;94140.75;;;25.30;40.61
78149;BME280;67396;42.664;23.382;2023-08-30T09:21:10;94125.72;;;25.39;40.71
78149;BME280;67396;42.664;23.382;2023-08-30T09:23:36;94129.97;;;25.60;40.57
78149;BME280;67396;42.664;23.382;2023-08-30T09:26:02;94128.19;;;25.26;40.89
78149;BME280;67396;42.664;23.382;2023-08-30T09:28:28;94130.66;;;25.49;40.74
78149;BME280;67396;42.664;23.382;2023-08-30T09:30:54;94133.91;;;25.79;40.55
78149;BME280;67396;42.664;23.382;2023-08-30T09:33:29;94135.00;;;25.93;39.72
78149;BME280;67396;42.664;23.382;2023-08-30T09:35:54;94142.41;;;25.96;39.28
78149;BME280;67396;42.664;23.382;2023-08-30T09:38:21;94134.16;;;26.52;39.04
78149;BME280;67396;42.664;23.382;2023-08-30T09:40:47;94131.41;;;27.35;36.19
78149;BME280;67396;42.664;23.382;2023-08-30T09:43:13;94136.38;;;29.03;33.55
78149;BME280;67396;42.664;23.382;2023-08-30T09:45:39;94129.34;;;29.99;31.49
78149;BME280;67396;42.664;23.382;2023-08-30T09:48:07;94122.66;;;30.77;30.33
78149;BME280;67396;42.664;23.382;2023-08-30T09:50:34;94117.66;;;31.34;28.96
78149;BME280;67396;42.664;23.382;2023-08-30T09:53:09;94114.81;;;31.66;28.34
78149;BME280;67396;42.664;23.382;2023-08-30T09:55:38;94117.41;;;31.77;28.19
78149;BME280;67396;42.664;23.382;2023-08-30T09:58:04;94114.25;;;31.94;28.08
78149;BME280;67396;42.664;23.382;2023-08-30T10:00:32;94116.66;;;32.03;27.79
78149;BME280;67396;42.664;23.382;2023-08-30T10:02:59;94104.44;;;31.82;27.52
78149;BME280;67396;42.664;23.382;2023-08-30T10:05:26;94099.44;;;31.42;28.24
78149;BME280;67396;42.664;23.382;2023-08-30T10:07:52;94098.69;;;31.29;29.01
78149;BME280;67396;42.664;23.382;2023-08-30T10:10:19;94105.66;;;31.41;28.85
78149;BME280;67396;42.664;23.382;2023-08-30T10:12:46;94103.72;;;31.49;29.32
78149;BME280;67396;42.664;23.382;2023-08-30T10:15:11;94095.78;;;31.61;28.69
78149;BME280;67396;42.664;23.382;2023-08-30T10:17:38;94092.09;;;31.79;28.11
78149;BME280;67396;42.664;23.382;2023-08-30T10:20:07;94082.84;;;31.92;28.52
78149;BME280;67396;42.664;23.382;2023-08-30T10:22:35;94089.38;;;32.00;28.79
78149;BME280;67396;42.664;23.382;2023-08-30T10:25:06;94093.09;;;32.08;28.04
78149;BME280;67396;42.664;23.382;2023-08-30T10:27:33;94089.13;;;32.11;27.88
78149;BME280;67396;42.664;23.382;2023-08-30T10:30:01;94096.16;;;31.84;27.29
78149;BME280;67396;42.664;23.382;2023-08-30T10:32:28;94095.91;;;31.68;28.11
78149;BME280;67396;42.664;23.382;2023-08-30T10:34:54;94094.19;;;31.65;27.65
78149;BME280;67396;42.664;23.382;2023-08-30T10:37:23;94086.84;;;31.70;27.85
78149;BME280;67396;42.664;23.382;2023-08-30T10:39:49;94085.22;;;31.88;27.90
78149;BME280;67396;42.664;23.382;2023-08-30T10:42:16;94084.03;;;32.09;27.98
78149;BME280;67396;42.664;23.382;2023-08-30T10:44:48;94085.09;;;32.06;27.65
78149;BME280;67396;42.664;23.382;2023-08-30T10:47:24;94095.19;;;31.04;29.53
78149;BME280;67396;42.664;23.382;2023-08-30T10:49:53;94082.53;;;30.73;30.07
78149;BME280;67396;42.664;23.382;2023-08-30T10:52:19;94084.22;;;30.44;30.46
78149;BME280;67396;42.664;23.382;2023-08-30T10:54:44;94076.38;;;29.94;31.23
78149;BME280;67396;42.664;23.382;2023-08-30T10:57:14;94079.69;;;28.54;33.75
78149;BME280;67396;42.664;23.382;2023-08-30T11:00:03;94080.59;;;27.75;35.17
78149;BME280;67396;42.664;23.382;2023-08-30T11:02:29;94077.13;;;26.96;37.26
78149;BME280;67396;42.664;23.382;2023-08-30T11:04:57;94089.66;;;26.78;38.04
78149;BME280;67396;42.664;23.382;2023-08-30T11:07:25;94092.97;;;26.66;37.80
78149;BME280;67396;42.664;23.382;2023-08-30T11:09:52;94074.53;;;26.42;37.54
78149;BME280;67396;42.664;23.382;2023-08-30T11:12:18;94083.16;;;26.22;38.17
78149;BME280;67396;42.664;23.382;2023-08-30T11:14:45;94073.50;;;26.29;38.48
78149;BME280;67396;42.664;23.382;2023-08-30T11:17:11;94074.03;;;26.49;37.90
78149;BME280;67396;42.664;23.382;2023-08-30T11:19:36;94075.81;;;26.52;37.65
78149;BME280;67396;42.664;23.382;2023-08-30T11:22:02;94073.00;;;26.75;37.13
78149;BME280;67396;42.664;23.382;2023-08-30T11:24:28;94068.66;;;26.85;36.46
78149;BME280;67396;42.664;23.382;2023-08-30T11:26:56;94067.41;;;26.91;36.34
78149;BME280;67396;42.664;23.382;2023-08-30T11:29:22;94050.25;;;26.89;36.32
78149;BME280;67396;42.664;23.382;2023-08-30T11:31:49;94048.97;;;26.96;36.40
78149;BME280;67396;42.664;23.382;2023-08-30T11:34:14;94048.19;;;27.01;35.87
78149;BME280;67396;42.664;23.382;2023-08-30T11:36:39;94047.69;;;27.08;35.55
78149;BME280;67396;42.664;23.382;2023-08-30T11:39:06;94041.50;;;27.10;35.58
78149;BME280;67396;42.664;23.382;2023-08-30T11:41:32;94036.16;;;26.95;36.49
78149;BME280;67396;42.664;23.382;2023-08-30T11:43:58;94036.66;;;26.88;36.40
78149;BME280;67396;42.664;23.382;2023-08-30T11:46:23;94036.69;;;26.99;36.20
78149;BME280;67396;42.664;23.382;2023-08-30T11:48:50;94034.59;;;27.16;34.29
78149;BME280;67396;42.664;23.382;2023-08-30T11:51:17;94026.91;;;27.11;34.50
78149;BME280;67396;42.664;23.382;2023-08-30T11:53:45;94016.41;;;27.23;34.93
78149;BME280;67396;42.664;23.382;2023-08-30T11:56:11;94018.66;;;27.35;34.35
78149;BME280;67396;42.664;23.382;2023-08-30T11:58:37;94023.53;;;27.35;34.29
78149;BME280;67396;42.664;23.382;2023-08-30T12:01:04;94016.88;;;27.32;34.26
78149;BME280;67396;42.664;23.382;2023-08-30T12:03:30;94011.53;;;27.23;34.55
78149;BME280;67396;42.664;23.382;2023-08-30T12:05:56;94011.00;;;27.19;34.75
78149;BME280;67396;42.664;23.382;2023-08-30T12:08:29;94010.22;;;27.30;33.47
78149;BME280;67396;42.664;23.382;2023-08-30T12:10:56;94012.00;;;27.27;34.04
78149;BME280;67396;42.664;23.382;2023-08-30T12:13:34;94007.91;;;27.28;33.71
78149;BME280;67396;42.664;23.382;2023-08-30T12:16:01;94010.97;;;27.36;33.08
78149;BME280;67396;42.664;23.382;2023-08-30T12:18:34;94003.81;;;27.29;33.53
78149;BME280;67396;42.664;23.382;2023-08-30T12:21:03;94006.66;;;27.18;34.39
78149;BME280;67396;42.664;23.382;2023-08-30T12:23:31;94000.75;;;27.27;32.59
78149;BME280;67396;42.664;23.382;2023-08-30T12:26:00;94003.81;;;27.29;33.14
78149;BME280;67396;42.664;23.382;2023-08-30T12:28:27;94006.09;;;27.42;33.66
78149;BME280;67396;42.664;23.382;2023-08-30T12:30:53;94002.25;;;27.40;33.46
78149;BME280;67396;42.664;23.382;2023-08-30T12:33:19;93990.09;;;26.98;33.92
78149;BME280;67396;42.664;23.382;2023-08-30T12:35:45;94001.06;;;26.90;33.74
78149;BME280;67396;42.664;23.382;2023-08-30T12:38:11;93987.00;;;26.96;33.96
78149;BME280;67396;42.664;23.382;2023-08-30T12:40:54;93980.53;;;27.23;32.91
78149;BME280;67396;42.664;23.382;2023-08-30T12:43:21;93978.28;;;27.05;34.13
78149;BME280;67396;42.664;23.382;2023-08-30T12:45:47;93983.34;;;27.23;33.03
78149;BME280;67396;42.664;23.382;2023-08-30T12:48:14;93975.38;;;27.33;32.58
78149;BME280;67396;42.664;23.382;2023-08-30T12:50:45;93974.03;;;27.51;32.25
78149;BME280;67396;42.664;23.382;2023-08-30T12:53:11;93973.97;;;27.62;31.19
78149;BME280;67396;42.664;23.382;2023-08-30T12:55:36;93962.91;;;27.75;31.33